createdAt,value
2023-05-09T05:00:27.552Z,101328.06
2023-05-09T05:03:14.638Z,101322.72
2023-05-09T05:06:00.652Z,101321.59
2023-05-09T05:08:47.098Z,101321.84
2023-05-09T05:11:33.987Z,101315.47
2023-05-09T05:14:22.552Z,101318.81
2023-05-09T05:23:39.378Z,101302.66
2023-05-09T05:26:26.370Z,101303.84
2023-05-09T05:29:13.811Z,101301.22
2023-05-09T05:32:00.520Z,101291.69
2023-05-09T05:34:47.170Z,101294.69
2023-05-09T05:37:34.264Z,101290.09
2023-05-09T05:40:22.352Z,101285.00
2023-05-09T05:43:10.271Z,101283.66
2023-05-09T05:45:58.508Z,101293.41
2023-05-09T05:48:47.210Z,101285.78
2023-05-09T05:51:33.904Z,101281.50
2023-05-09T05:54:21.494Z,101273.66
2023-05-09T05:57:09.456Z,101273.13
2023-05-09T05:59:55.904Z,101269.94
2023-05-09T06:02:44.611Z,101266.44
2023-05-09T06:05:38.144Z,101264.72
2023-05-09T06:08:25.618Z,101264.09
2023-05-09T06:11:12.269Z,101255.22
2023-05-09T06:13:59.530Z,101255.75
2023-05-09T06:16:47.107Z,101259.25
2023-05-09T06:19:34.787Z,101240.25
2023-05-09T06:22:21.189Z,101249.28
2023-05-09T06:25:10.121Z,101242.88
2023-05-09T06:27:56.844Z,101242.22
2023-05-09T06:30:44.400Z,101241.94
2023-05-09T06:33:30.529Z,101239.56
2023-05-09T06:36:16.770Z,101235.06
2023-05-09T06:39:03.281Z,101243.34
2023-05-09T06:41:49.768Z,101231.47
2023-05-09T06:44:44.151Z,101231.53
2023-05-09T06:47:32.320Z,101230.31
2023-05-09T06:50:18.782Z,101224.44
2023-05-09T06:53:04.981Z,101231.91
2023-05-09T06:55:51.357Z,101232.28
2023-05-09T06:58:37.951Z,101221.53
2023-05-09T07:01:24.326Z,101224.69
2023-05-09T07:04:11.970Z,101218.47
2023-05-09T07:06:59.161Z,101219.09
2023-05-09T07:09:45.580Z,101214.44
2023-05-09T07:12:32.269Z,101208.97
2023-05-09T07:15:28.759Z,101213.78
2023-05-09T07:18:23.374Z,101209.63
2023-05-09T07:21:11.094Z,101210.53
2023-05-09T07:23:57.343Z,101197.81
2023-05-09T07:26:43.513Z,101201.53
2023-05-09T07:29:30.099Z,101198.50
2023-05-09T07:32:16.525Z,101203.84
2023-05-09T07:35:03.924Z,101191.97
2023-05-09T07:37:51.253Z,101197.78
2023-05-09T07:40:38.638Z,101194.84
2023-05-09T07:43:25.160Z,101189.28
2023-05-09T07:46:12.121Z,101187.44
2023-05-09T07:48:58.343Z,101183.94
2023-05-09T07:51:44.720Z,101189.03
2023-05-09T07:54:32.523Z,101181.41
2023-05-09T07:57:18.914Z,101177.19
2023-05-09T08:00:07.050Z,101180.63
2023-05-09T08:03:00.149Z,101171.72
2023-05-09T08:05:47.110Z,101169.69
2023-05-09T08:08:33.331Z,101164.44
2023-05-09T08:11:21.358Z,101147.22
2023-05-09T08:14:07.990Z,101152.91
2023-05-09T08:16:54.298Z,101148.09
2023-05-09T08:19:40.855Z,101149.09
2023-05-09T08:22:27.290Z,101139.97
2023-05-09T08:25:15.602Z,101136.09
2023-05-09T08:28:04.007Z,101134.75
2023-05-09T08:30:50.213Z,101131.22
2023-05-09T08:33:36.741Z,101124.47
2023-05-09T08:36:23.379Z,101120.72
2023-05-09T08:39:10.485Z,101122.84
2023-05-09T08:42:00.700Z,101115.88
2023-05-09T08:44:48.100Z,101126.44
2023-05-09T08:47:36.725Z,101127.38
2023-05-09T08:50:23.573Z,101115.56
2023-05-09T08:53:10.342Z,101113.63
2023-05-09T08:55:56.920Z,101114.66
2023-05-09T08:58:43.364Z,101114.41
2023-05-09T09:01:33.875Z,101105.16
2023-05-09T09:04:20.545Z,101098.16
2023-05-09T09:07:07.987Z,101100.19
2023-05-09T09:09:55.702Z,101099.59
2023-05-09T09:12:43.386Z,101093.59
2023-05-09T09:15:35.864Z,101097.91
2023-05-09T09:18:29.384Z,101100.09
2023-05-09T09:21:17.569Z,101092.34
2023-05-09T09:24:04.449Z,101090.81
2023-05-09T09:26:51.894Z,101088.22
2023-05-09T09:29:39.531Z,101080.47
2023-05-09T09:32:34.121Z,101076.19
2023-05-09T09:35:21.848Z,101077.69
2023-05-09T09:38:08.186Z,101076.09
2023-05-09T09:40:55.765Z,101070.88
2023-05-09T09:43:46.989Z,101072.81
2023-05-09T09:46:42.385Z,101069.91
2023-05-09T09:49:29.265Z,101068.03
2023-05-09T09:52:24.093Z,101071.69
2023-05-09T09:55:10.962Z,101073.75
2023-05-09T09:57:57.994Z,101070.81
2023-05-09T10:00:45.890Z,101063.66
2023-05-09T10:03:37.065Z,101057.47
2023-05-09T10:06:23.297Z,101059.22
2023-05-09T10:09:10.919Z,101061.19
2023-05-09T10:11:58.394Z,101060.44
2023-05-09T10:14:46.013Z,101055.84
2023-05-09T13:28:08.772Z,100914.41
2023-05-09T13:30:55.209Z,100911.81
2023-05-09T13:33:41.861Z,100906.19
2023-05-09T13:36:29.060Z,100903.34
2023-05-09T13:39:15.050Z,100908.78
2023-05-09T13:42:02.151Z,100904.50
2023-05-09T13:44:49.677Z,100904.66
2023-05-09T13:47:37.961Z,100900.03
2023-05-09T13:50:25.116Z,100906.59
2023-05-09T13:53:11.288Z,100893.56
2023-05-09T13:55:57.688Z,100900.59
2023-05-09T13:58:44.227Z,100894.81
2023-05-09T14:01:32.125Z,100891.63
2023-05-09T14:04:18.739Z,100886.06
2023-05-09T14:10:15.786Z,100873.34
2023-05-09T14:13:03.249Z,100862.94
2023-05-09T14:15:49.858Z,100876.56
2023-05-09T14:18:37.454Z,100869.44
2023-05-09T14:21:23.736Z,100862.78
2023-05-09T14:24:10.713Z,100856.53
2023-05-09T14:26:57.239Z,100848.03
2023-05-09T14:29:44.068Z,100850.16
2023-05-09T14:32:30.472Z,100844.72
2023-05-09T14:35:18.728Z,100849.56
2023-05-09T14:38:05.266Z,100831.41
2023-05-09T14:40:51.603Z,100837.25
2023-05-09T14:43:37.836Z,100825.09
2023-05-09T14:46:24.860Z,100822.91
2023-05-09T14:49:11.578Z,100820.69
2023-05-09T14:51:59.180Z,100817.53
2023-05-09T14:54:45.625Z,100820.84
2023-05-09T14:57:32.211Z,100814.66
2023-05-09T15:48:02.031Z,100806.44
2023-05-09T15:50:49.553Z,100801.19
2023-05-09T15:54:08.617Z,100794.25
2023-05-09T15:56:54.665Z,100800.81
2023-05-09T15:59:41.128Z,100794.56
2023-05-09T16:02:29.460Z,100786.91
2023-05-09T16:05:19.476Z,100780.25
2023-05-09T16:08:06.197Z,100772.41
2023-05-09T16:10:52.542Z,100766.81
2023-05-09T16:13:40.872Z,100771.13
2023-05-09T16:16:27.318Z,100760.59
2023-05-09T16:19:14.342Z,100755.91
2023-05-09T16:22:04.121Z,100751.94
2023-05-09T16:24:52.105Z,100755.06
2023-05-09T16:27:43.018Z,100748.25
2023-05-09T16:30:29.720Z,100736.94
2023-05-09T16:33:18.859Z,100733.44
2023-05-09T16:36:05.886Z,100727.66
2023-05-09T16:38:53.637Z,100732.28
2023-05-09T16:41:39.853Z,100729.78
2023-05-09T16:44:26.361Z,100726.63
2023-05-09T16:47:12.737Z,100716.06
2023-05-09T16:49:59.316Z,100716.59
2023-05-09T16:52:45.694Z,100710.16
2023-05-09T16:55:33.697Z,100700.22
2023-05-09T16:58:20.132Z,100702.91
2023-05-09T17:01:06.573Z,100697.31
2023-05-09T17:03:55.499Z,100697.00
2023-05-09T17:06:42.043Z,100696.09
2023-05-09T17:09:28.691Z,100700.75
2023-05-09T17:12:18.121Z,100692.75
2023-05-09T17:15:05.699Z,100702.03
2023-05-09T17:17:51.971Z,100699.91
2023-05-09T17:20:38.367Z,100698.75
2023-05-09T17:23:27.314Z,100687.06
2023-05-09T17:26:13.866Z,100691.03
2023-05-09T17:29:03.549Z,100682.66
2023-05-09T17:31:49.971Z,100683.34
2023-05-09T17:34:36.758Z,100682.00
2023-05-09T17:37:22.703Z,100679.56
2023-05-09T17:40:10.315Z,100683.13
2023-05-09T17:42:56.460Z,100674.31
2023-05-09T17:45:45.827Z,100676.66
2023-05-09T17:48:32.199Z,100681.63
2023-05-09T17:51:18.497Z,100663.38
2023-05-09T17:54:05.577Z,100651.63
2023-05-09T17:56:58.869Z,100647.00
2023-05-09T17:59:47.823Z,100660.13
2023-05-09T18:02:36.074Z,100660.50
2023-05-09T18:05:23.338Z,100656.72
2023-05-09T18:08:11.010Z,100648.88
2023-05-09T18:10:57.689Z,100646.00
2023-05-09T18:13:43.829Z,100638.63
2023-05-09T18:16:30.297Z,100635.13
2023-05-09T18:19:18.069Z,100628.41
2023-05-09T18:22:04.358Z,100614.22
2023-05-09T18:24:50.926Z,100618.44
2023-05-09T18:27:37.398Z,100617.63
2023-05-09T18:30:23.629Z,100620.81
2023-05-09T18:33:09.851Z,100628.94
2023-05-09T18:35:57.641Z,100632.13
2023-05-09T18:38:44.503Z,100628.47
2023-05-09T18:41:31.756Z,100630.81
2023-05-09T18:44:18.163Z,100618.72
2023-05-09T18:47:07.759Z,100627.22
2023-05-09T18:49:54.410Z,100638.97
2023-05-09T18:52:45.457Z,100640.94
2023-05-09T18:55:32.029Z,100630.34
2023-05-09T18:58:18.345Z,100631.16
2023-05-09T19:46:22.797Z,100646.53
2023-05-09T19:49:09.706Z,100647.16
2023-05-09T19:51:56.325Z,100659.13
2023-05-09T19:54:42.731Z,100648.66
2023-05-09T19:57:29.229Z,100654.78
2023-05-09T22:00:26.380Z,100615.13
2023-05-09T22:03:14.103Z,100610.63
2023-05-09T22:06:00.237Z,100611.00
2023-05-09T22:08:46.590Z,100613.03
2023-05-09T22:11:33.527Z,100608.84
2023-05-09T22:14:19.892Z,100610.28
